Hannaford, North Dakota
Current Conditions -  °F | °C
As of 11:55 PM on Saturday 25 Oct 2014 (Local Time) from KBAC Reporting Station
Few Clouds Few Clouds  
Wind Chill: 34°   Ceiling: Unl
Heat Index: 37°   Visibility: 7mi
Dew Point: 28°   Wind: 5mph
Humidity: 70%   Direction: 190°S
Pressure: 29.99"   Gusts: NA
Location:  47.31°N, 98.19°W
Report Text: KBAC 260455Z AUTO 19004KT 7SM FEW023 03/M02 A2999 RMK AO2
Loading
Personal Weather Stations






























Interactive Weather Map
Tropical Storm Tracking
New forecast layout! Learn more

10-Day Weather Forecast

Advertisements
Track Severe Weather on mobile